Pagrindinis puslapis
METAR-TAF:

METAR-TAF

Oro uostai :

Antofagasta, Čilė

platuma: 23-26S, ilguma: 070-26W, Aukštis: 135 m

Dabartinis oras

Ataskaita buvo paskelbta 1 valandą ir 8 minutes, ne 11:00 UTC
Vėjas 2 kt nuo kintamojo kryptimis
Temperatūra 16°C
Drėgmė 82%
Slėgis 1015 hPa
Matomumas 10 km arba daugiau
Apsiniaukę ne aukštis 1700 ft

METAR: SCFA 121100Z VRB02KT 9999 OVC017 16/13 Q1015 NOSIG

Laikas: 09:08 (12:08 UTC)

Prognozė

Ataskaita buvo paskelbta 1 valandą ir 37 minutes, ne 10:31 UTC
Prognozė galioja nuo 12 metu 12 UTC su 13 metu 12 UTC
Vėjas 4 kt iš Vakarų/Šiaurės Vakarų
Matomumas 10 km arba daugiau
Su prošvaistėmis ne aukštis 1600 ft
Tapsmas
nuo 12 metu 14 UTC su 12 metu 16 UTC
Vėjas 14 kt iš Pietų/Pietvakarių
Mažai debesys ne aukštis 1800 ft
Su prošvaistėmis ne aukštis 25000 ft
Tapsmas
nuo 13 metu 02 UTC su 13 metu 04 UTC
Vėjas 4 kt iš Pietų/Pietvakarių
Su prošvaistėmis ne aukštis 1200 ft

TAF: SCFA 121031Z 1212/1312 30004KT 9999 BKN016 TX19/1218Z TN15/1306Z BECMG 1214/1216 21014KT FEW018 BKN250 BECMG 1302/1304 20004KT BKN012

Orai ataskaitas ir orų prognozės (METAR, TAF).

turimą stotys yra geltonos ir raudonos taškus žemėlapyje.

Perkelti pele per norėdami pamatyti stoties vardą.

Tada spustelėkite, norėdami matyti oro stebėjimo ir prognozės.

Norėdami pakeisti žemėlapį: spustelėkite ant žalios mygtukų su juodo kryžiaus žemyn,; žalią mygtuką su brūkšneliu, jei norite nutolinti; arba žalių rodyklių gretimoms žemėlapius.


METAR-TAF: